createdAt,value
2023-07-02T00:00:23.523Z,8.27
2023-07-02T00:02:51.318Z,7.75
2023-07-02T00:05:19.660Z,8.20
2023-07-02T00:07:47.537Z,8.55
2023-07-02T00:10:15.556Z,6.95
2023-07-02T00:12:45.424Z,7.50
2023-07-02T00:15:13.486Z,9.55
2023-07-02T00:17:43.445Z,8.05
2023-07-02T00:20:15.867Z,8.27
2023-07-02T00:22:46.904Z,7.78
2023-07-02T00:25:15.888Z,14.80
2023-07-02T00:27:43.987Z,14.88
2023-07-02T00:30:12.486Z,30.58
2023-07-02T00:32:41.914Z,22.02
2023-07-02T00:35:10.047Z,15.07
2023-07-02T00:37:38.277Z,20.55
2023-07-02T00:40:07.812Z,16.58
2023-07-02T00:42:35.803Z,14.73
2023-07-02T00:45:04.758Z,12.65
2023-07-02T00:47:33.361Z,15.55
2023-07-02T00:50:03.548Z,9.68
2023-07-02T00:52:32.069Z,8.35
2023-07-02T00:55:00.191Z,7.40
2023-07-02T00:57:31.156Z,7.60
2023-07-02T01:00:01.995Z,8.00
2023-07-02T01:02:31.166Z,7.30
2023-07-02T01:05:01.768Z,7.45
2023-07-02T01:07:31.935Z,7.03
2023-07-02T01:09:59.982Z,7.47
2023-07-02T01:12:28.522Z,7.13
2023-07-02T01:14:58.413Z,7.28
2023-07-02T01:17:29.001Z,7.45
2023-07-02T01:20:00.917Z,7.30
2023-07-02T01:22:30.432Z,6.80
2023-07-02T01:24:58.363Z,7.00
2023-07-02T01:27:26.251Z,6.85
2023-07-02T01:29:55.188Z,6.85
2023-07-02T01:32:23.674Z,7.57
2023-07-02T01:34:54.828Z,7.13
2023-07-02T01:37:25.013Z,7.43
2023-07-02T01:39:52.999Z,7.18
2023-07-02T01:42:21.968Z,7.50
2023-07-02T01:44:52.690Z,7.40
2023-07-02T01:47:21.503Z,7.35
2023-07-02T01:49:49.822Z,7.50
2023-07-02T01:52:18.463Z,7.50
2023-07-02T01:54:48.464Z,8.60
2023-07-02T01:57:16.602Z,7.93
2023-07-02T01:59:44.749Z,7.80
2023-07-02T02:02:13.048Z,7.22
2023-07-02T02:04:41.366Z,6.90
2023-07-02T02:07:09.574Z,7.75
2023-07-02T02:09:37.639Z,8.50
2023-07-02T02:12:08.138Z,8.02
2023-07-02T02:14:36.147Z,8.13
2023-07-02T02:17:04.267Z,8.43
2023-07-02T02:19:32.680Z,8.20
2023-07-02T02:22:00.616Z,7.82
2023-07-02T02:24:28.600Z,8.27
2023-07-02T02:26:57.468Z,8.82
2023-07-02T02:29:26.913Z,7.70
2023-07-02T02:31:54.752Z,8.13
2023-07-02T02:34:23.178Z,8.30
2023-07-02T02:36:51.267Z,8.13
2023-07-02T02:39:19.028Z,8.55
2023-07-02T02:41:46.778Z,8.32
2023-07-02T02:44:17.683Z,8.82
2023-07-02T02:46:47.041Z,8.15
2023-07-02T02:49:14.788Z,8.48
2023-07-02T02:51:42.738Z,8.48
2023-07-02T02:54:10.539Z,7.78
2023-07-02T02:56:38.397Z,7.63
2023-07-02T02:59:06.234Z,8.05
2023-07-02T03:01:34.101Z,9.02
2023-07-02T03:04:03.403Z,9.00
2023-07-02T03:06:31.478Z,7.97
2023-07-02T03:08:59.193Z,8.85
2023-07-02T03:11:27.202Z,8.20
2023-07-02T03:13:55.216Z,8.60
2023-07-02T03:16:23.270Z,7.72
2023-07-02T03:18:51.094Z,7.80
2023-07-02T03:21:20.294Z,8.13
2023-07-02T03:23:48.220Z,8.23
2023-07-02T03:26:16.236Z,8.55
2023-07-02T03:28:44.118Z,8.20
2023-07-02T03:31:12.037Z,8.60
2023-07-02T03:33:39.852Z,7.68
2023-07-02T03:36:08.844Z,8.35
2023-07-02T03:38:38.026Z,8.63
2023-07-02T03:41:06.240Z,8.13
2023-07-02T03:43:33.974Z,7.85
2023-07-02T03:46:01.919Z,8.48
2023-07-02T03:48:29.814Z,8.25
2023-07-02T03:50:57.777Z,8.18
2023-07-02T03:53:25.650Z,7.53
2023-07-02T03:55:54.801Z,7.85
2023-07-02T03:58:22.667Z,8.18
2023-07-02T04:00:51.532Z,8.93
2023-07-02T04:03:20.105Z,8.45
2023-07-02T04:05:47.948Z,7.80
2023-07-02T04:08:16.734Z,8.40
2023-07-02T04:10:44.830Z,7.72
2023-07-02T04:13:14.060Z,8.38
2023-07-02T04:15:41.820Z,7.95
2023-07-02T04:18:09.763Z,9.38
2023-07-02T04:20:39.785Z,9.20
2023-07-02T04:23:07.834Z,9.57
2023-07-02T04:26:08.300Z,9.00
2023-07-02T04:28:25.193Z,8.18
2023-07-02T04:30:54.328Z,9.07
2023-07-02T04:33:22.480Z,8.75
2023-07-02T04:35:50.281Z,9.70
2023-07-02T04:38:20.914Z,7.88
2023-07-02T04:40:52.947Z,8.65
2023-07-02T04:43:20.899Z,8.23
2023-07-02T04:45:50.304Z,8.73
2023-07-02T04:48:18.206Z,9.18
2023-07-02T04:50:46.385Z,9.00
2023-07-02T04:53:14.309Z,8.60
2023-07-02T04:55:42.148Z,9.93
2023-07-02T04:58:10.069Z,8.90
2023-07-02T05:00:37.789Z,9.07
2023-07-02T05:03:07.295Z,8.52
2023-07-02T05:05:35.215Z,9.43
2023-07-02T05:08:03.288Z,9.68
2023-07-02T05:10:31.171Z,9.32
2023-07-02T05:12:59.030Z,8.63
2023-07-02T05:15:27.413Z,8.80
2023-07-02T05:17:55.459Z,8.93
2023-07-02T05:20:24.676Z,9.80
2023-07-02T05:22:52.773Z,9.20
2023-07-02T05:25:20.754Z,9.15
2023-07-02T05:27:49.349Z,8.25
2023-07-02T05:30:17.470Z,8.80
2023-07-02T05:32:45.376Z,8.48
2023-07-02T05:35:13.221Z,9.05
2023-07-02T05:37:42.381Z,9.60
2023-07-02T05:40:11.671Z,9.30
2023-07-02T05:42:40.101Z,9.05
2023-07-02T05:45:08.469Z,9.73
2023-07-02T05:47:36.336Z,8.88
2023-07-02T05:50:04.116Z,8.75
2023-07-02T05:52:32.208Z,8.27
2023-07-02T05:55:01.536Z,9.05
2023-07-02T05:57:29.398Z,8.75
2023-07-02T05:59:57.228Z,8.52
2023-07-02T06:02:25.086Z,9.48
2023-07-02T06:04:53.052Z,8.95
2023-07-02T06:07:20.927Z,9.07
2023-07-02T06:09:48.948Z,8.40
2023-07-02T06:12:18.233Z,8.63
2023-07-02T06:14:46.385Z,8.57
2023-07-02T06:17:14.211Z,9.15
2023-07-02T06:19:42.251Z,8.77
2023-07-02T06:22:10.086Z,8.15
2023-07-02T06:24:37.864Z,9.10
2023-07-02T06:27:06.099Z,8.98
2023-07-02T06:29:35.286Z,8.45
2023-07-02T06:32:03.144Z,8.55
2023-07-02T06:34:31.043Z,9.23
2023-07-02T06:36:58.857Z,7.68
2023-07-02T06:39:26.905Z,8.73
2023-07-02T06:41:54.713Z,8.38
2023-07-02T06:44:29.667Z,8.25
2023-07-02T06:46:59.256Z,8.90
2023-07-02T06:49:27.156Z,7.95
2023-07-02T06:51:54.975Z,7.60
2023-07-02T06:54:22.718Z,7.18
2023-07-02T06:56:50.718Z,8.02
2023-07-02T06:59:21.316Z,8.13
2023-07-02T07:01:49.240Z,8.07
2023-07-02T07:04:18.613Z,7.97
2023-07-02T07:06:46.599Z,7.60
2023-07-02T07:09:14.539Z,7.72
2023-07-02T07:11:42.410Z,7.90
2023-07-02T07:14:10.168Z,7.10
2023-07-02T07:16:38.112Z,7.05
2023-07-02T07:19:05.896Z,7.35
2023-07-02T07:21:35.310Z,7.03
2023-07-02T07:24:03.390Z,7.15
2023-07-02T07:26:31.302Z,7.55
2023-07-02T07:28:59.136Z,6.95
2023-07-02T07:31:27.435Z,6.85
2023-07-02T07:33:55.254Z,7.20
2023-07-02T07:36:23.176Z,6.18
2023-07-02T07:38:52.427Z,6.70
2023-07-02T07:41:20.226Z,7.32
2023-07-02T07:43:48.137Z,7.53
2023-07-02T07:46:16.354Z,6.43
2023-07-02T07:48:44.386Z,6.63
2023-07-02T07:51:12.377Z,6.72
2023-07-02T07:53:40.411Z,6.50
2023-07-02T07:56:09.853Z,6.47
2023-07-02T07:58:37.724Z,6.93
2023-07-02T08:01:06.243Z,6.28
2023-07-02T08:03:34.131Z,5.93
2023-07-02T08:06:02.062Z,6.38
2023-07-02T08:08:29.939Z,5.95
2023-07-02T08:10:57.802Z,6.20
2023-07-02T08:13:26.915Z,5.60
2023-07-02T08:15:55.001Z,6.13
2023-07-02T08:18:22.850Z,5.68
2023-07-02T08:20:51.003Z,6.38
2023-07-02T08:23:18.959Z,5.63
2023-07-02T08:25:46.809Z,5.93
2023-07-02T08:28:14.627Z,5.60
2023-07-02T08:30:43.982Z,6.05
2023-07-02T08:33:11.843Z,5.63
2023-07-02T08:35:39.735Z,5.68
2023-07-02T08:38:09.312Z,5.38
2023-07-02T08:40:37.176Z,5.43
2023-07-02T08:43:04.947Z,5.15
2023-07-02T08:45:33.149Z,5.43
2023-07-02T08:48:02.354Z,5.78
2023-07-02T08:50:30.398Z,5.95
2023-07-02T08:52:58.159Z,5.88
2023-07-02T08:55:26.092Z,5.68
2023-07-02T08:57:55.936Z,5.65
2023-07-02T09:00:23.897Z,5.93
2023-07-02T09:02:51.901Z,5.82
2023-07-02T09:05:21.032Z,5.30
2023-07-02T09:07:51.868Z,5.15
2023-07-02T09:10:29.033Z,5.22
2023-07-02T09:13:07.194Z,5.38
2023-07-02T09:15:39.213Z,4.95
2023-07-02T09:18:17.487Z,4.97
2023-07-02T09:20:47.562Z,5.20
2023-07-02T09:23:15.594Z,4.53
2023-07-02T09:25:43.464Z,4.78
2023-07-02T09:28:19.754Z,4.25
2023-07-02T09:30:52.577Z,4.53
2023-07-02T09:33:20.934Z,4.20
2023-07-02T09:35:51.415Z,4.18
2023-07-02T09:38:20.137Z,4.30
2023-07-02T09:40:49.480Z,4.75
2023-07-02T09:43:18.106Z,4.50
2023-07-02T09:45:46.995Z,4.47
2023-07-02T09:48:16.424Z,4.50
2023-07-02T09:50:46.162Z,4.95
2023-07-02T09:53:15.622Z,3.97
2023-07-02T09:55:44.846Z,3.75
2023-07-02T09:58:13.624Z,4.30
2023-07-02T10:00:42.109Z,3.90
2023-07-02T10:03:10.059Z,3.50
2023-07-02T10:05:38.125Z,3.85
2023-07-02T10:08:19.130Z,3.60
2023-07-02T10:10:47.518Z,3.90
2023-07-02T10:13:15.537Z,3.45
2023-07-02T10:15:43.505Z,3.50
2023-07-02T10:18:11.383Z,3.67
2023-07-02T10:20:40.235Z,3.17
2023-07-02T10:23:09.182Z,3.20
2023-07-02T10:25:39.449Z,3.95
2023-07-02T10:28:16.744Z,3.03
2023-07-02T10:30:45.108Z,3.85
2023-07-02T10:33:13.942Z,3.85
2023-07-02T10:35:42.965Z,3.75
2023-07-02T10:38:16.741Z,3.60
2023-07-02T10:40:46.227Z,3.72
2023-07-02T10:43:14.332Z,4.03
2023-07-02T10:45:42.514Z,3.50
2023-07-02T10:48:11.916Z,3.67
2023-07-02T10:50:40.074Z,3.97
2023-07-02T10:53:07.878Z,3.35
2023-07-02T10:55:35.785Z,3.97
2023-07-02T10:58:10.406Z,3.67
2023-07-02T11:00:46.112Z,3.53
2023-07-02T11:03:21.341Z,3.15
2023-07-02T11:05:50.618Z,10.25
2023-07-02T11:08:18.997Z,5.85
2023-07-02T11:10:47.002Z,3.60
2023-07-02T11:13:17.073Z,4.65
2023-07-02T11:15:47.236Z,3.78
2023-07-02T11:18:16.985Z,3.80
2023-07-02T11:20:46.624Z,3.53
2023-07-02T11:23:20.877Z,3.15
2023-07-02T11:25:59.533Z,3.80
2023-07-02T11:28:29.760Z,3.30
2023-07-02T11:30:58.532Z,3.60
2023-07-02T11:33:35.770Z,3.90
2023-07-02T11:36:03.573Z,3.53
2023-07-02T11:38:31.675Z,3.90
2023-07-02T11:40:59.622Z,3.83
2023-07-02T11:43:28.959Z,3.72
2023-07-02T11:45:57.526Z,4.20
2023-07-02T11:48:25.584Z,3.60
2023-07-02T11:50:53.355Z,3.58
2023-07-02T11:53:21.296Z,4.18
2023-07-02T11:55:49.557Z,3.85
2023-07-02T11:58:17.735Z,3.97
2023-07-02T12:00:46.930Z,3.85
2023-07-02T12:03:15.374Z,3.42
2023-07-02T12:05:43.221Z,3.70
2023-07-02T12:08:10.998Z,4.25
2023-07-02T12:10:39.377Z,4.03
2023-07-02T12:13:07.230Z,3.80
2023-07-02T12:15:35.272Z,3.67
2023-07-02T12:18:06.868Z,4.47
2023-07-02T12:20:34.805Z,3.60
2023-07-02T12:23:02.640Z,3.92
2023-07-02T12:25:30.567Z,4.10
2023-07-02T12:27:58.387Z,3.83
2023-07-02T12:30:26.306Z,4.15
2023-07-02T12:32:54.581Z,3.80
2023-07-02T12:35:31.587Z,3.83
2023-07-02T12:38:00.749Z,4.28
2023-07-02T12:40:28.534Z,4.22
2023-07-02T12:42:57.635Z,3.90
2023-07-02T12:45:27.068Z,3.88
2023-07-02T12:47:57.378Z,4.30
2023-07-02T12:50:27.438Z,4.43
2023-07-02T12:52:55.660Z,4.00
2023-07-02T12:55:23.887Z,4.13
2023-07-02T12:57:52.027Z,4.10
2023-07-02T13:00:20.516Z,4.40
2023-07-02T13:03:02.963Z,3.80
2023-07-02T13:05:34.599Z,3.75
2023-07-02T13:08:02.591Z,3.50
2023-07-02T13:10:31.099Z,4.38
2023-07-02T13:13:03.783Z,4.25
2023-07-02T13:15:35.718Z,3.88
2023-07-02T13:18:03.725Z,3.17
2023-07-02T13:20:31.769Z,4.55
2023-07-02T13:23:01.537Z,4.30
2023-07-02T13:25:29.370Z,4.70
2023-07-02T13:27:57.301Z,4.22
2023-07-02T13:30:25.247Z,4.72
2023-07-02T13:32:53.814Z,4.40
2023-07-02T13:35:23.658Z,4.35
2023-07-02T13:37:51.599Z,4.03
2023-07-02T13:40:21.337Z,4.13
2023-07-02T13:42:49.251Z,3.60
2023-07-02T13:45:17.029Z,4.57
2023-07-02T13:47:46.160Z,4.10
2023-07-02T13:50:14.244Z,4.50
2023-07-02T13:52:42.130Z,4.22
2023-07-02T13:55:10.678Z,4.32
2023-07-02T13:57:40.137Z,3.95
2023-07-02T14:00:10.884Z,4.22
2023-07-02T14:02:38.877Z,4.03
2023-07-02T14:05:07.919Z,5.35
2023-07-02T14:07:36.043Z,4.57
2023-07-02T14:10:04.132Z,4.88
2023-07-02T14:12:32.108Z,4.80
2023-07-02T14:15:01.462Z,4.63
2023-07-02T14:17:30.648Z,4.70
2023-07-02T14:19:58.595Z,4.20
2023-07-02T14:22:26.390Z,4.40
2023-07-02T14:24:54.370Z,4.53
2023-07-02T14:27:22.299Z,3.97
2023-07-02T14:29:50.096Z,4.07
2023-07-02T14:32:18.358Z,4.65
2023-07-02T14:34:47.737Z,4.30
2023-07-02T14:37:15.549Z,4.15
2023-07-02T14:39:50.618Z,4.28
2023-07-02T14:42:25.452Z,4.50
2023-07-02T14:44:53.397Z,4.75
2023-07-02T14:47:22.492Z,4.72
2023-07-02T14:49:51.978Z,4.75
2023-07-02T14:52:20.611Z,4.50
2023-07-02T14:54:48.448Z,4.65
2023-07-02T14:57:18.435Z,4.68
2023-07-02T14:59:46.795Z,4.82
2023-07-02T15:02:14.960Z,5.22
2023-07-02T15:04:43.177Z,4.85
2023-07-02T15:07:12.707Z,4.90
2023-07-02T15:09:40.502Z,4.60
2023-07-02T15:12:08.314Z,13.80
2023-07-02T15:14:37.302Z,11.75
2023-07-02T15:17:05.708Z,20.48
2023-07-02T15:19:33.629Z,5.53
2023-07-02T15:22:01.619Z,6.45
2023-07-02T15:24:30.717Z,4.82
2023-07-02T15:26:58.601Z,5.18
2023-07-02T15:29:26.402Z,4.90
2023-07-02T15:31:54.270Z,5.18
2023-07-02T15:34:22.210Z,4.57
2023-07-02T15:36:50.091Z,4.88
2023-07-02T15:39:23.454Z,4.53
2023-07-02T15:41:52.729Z,5.00
2023-07-02T15:44:20.671Z,5.22
2023-07-02T15:46:48.513Z,4.95
2023-07-02T15:49:16.591Z,4.47
2023-07-02T15:51:44.349Z,5.05
2023-07-02T15:54:12.873Z,5.43
2023-07-02T15:56:40.675Z,4.47
2023-07-02T15:59:09.857Z,20.10
2023-07-02T16:01:40.219Z,10.38
2023-07-02T16:04:09.747Z,5.05
2023-07-02T16:06:38.556Z,4.90
2023-07-02T16:09:09.079Z,4.97
2023-07-02T16:11:42.934Z,4.97
2023-07-02T16:14:14.017Z,3.88
2023-07-02T16:16:43.693Z,4.90
2023-07-02T16:19:13.744Z,4.60
2023-07-02T16:21:42.265Z,4.28
2023-07-02T16:24:11.272Z,4.82
2023-07-02T16:26:39.176Z,5.25
2023-07-02T16:29:06.967Z,5.00
2023-07-02T16:31:37.112Z,4.85
2023-07-02T16:34:06.134Z,4.88
2023-07-02T16:36:33.896Z,4.93
2023-07-02T16:39:01.804Z,4.10
2023-07-02T16:41:30.514Z,5.00
2023-07-02T16:43:58.534Z,4.88
2023-07-02T16:46:26.347Z,4.88
2023-07-02T16:48:55.504Z,5.70
2023-07-02T16:51:23.341Z,4.80
2023-07-02T16:53:52.402Z,5.35
2023-07-02T16:56:21.357Z,5.68
2023-07-02T16:58:50.101Z,5.40
2023-07-02T17:01:17.997Z,5.20
2023-07-02T17:03:48.561Z,5.35
2023-07-02T17:06:22.578Z,5.60
2023-07-02T17:09:26.316Z,5.32
2023-07-02T17:11:56.716Z,5.53
2023-07-02T17:14:25.870Z,5.65
2023-07-02T17:16:55.205Z,6.15
2023-07-02T17:19:27.078Z,5.32
2023-07-02T17:22:13.416Z,5.68
2023-07-02T17:24:46.238Z,5.45
2023-07-02T17:27:19.045Z,5.78
2023-07-02T17:29:51.496Z,5.55
2023-07-02T17:32:27.847Z,6.03
2023-07-02T17:34:59.828Z,6.13
2023-07-02T17:37:45.093Z,5.20
2023-07-02T17:40:13.538Z,6.10
2023-07-02T17:42:41.387Z,6.35
2023-07-02T17:45:10.185Z,6.00
2023-07-02T17:47:38.146Z,5.90
2023-07-02T17:50:06.939Z,5.88
2023-07-02T17:52:34.997Z,5.50
2023-07-02T17:55:04.458Z,5.75
2023-07-02T17:57:32.549Z,5.60
2023-07-02T18:00:01.416Z,6.00
2023-07-02T18:02:29.595Z,5.80
2023-07-02T18:04:57.925Z,6.28
2023-07-02T18:07:26.058Z,5.68
2023-07-02T18:09:55.444Z,6.50
2023-07-02T18:12:26.842Z,5.75
2023-07-02T18:14:55.741Z,6.22
2023-07-02T18:17:24.004Z,5.93
2023-07-02T18:19:54.245Z,6.65
2023-07-02T18:22:22.123Z,5.75
2023-07-02T18:24:50.184Z,5.88
2023-07-02T18:27:18.508Z,6.00
2023-07-02T18:29:49.679Z,5.63
2023-07-02T18:32:18.345Z,5.65
2023-07-02T18:34:48.329Z,5.90
2023-07-02T18:37:16.786Z,5.85
2023-07-02T18:39:44.923Z,6.18
2023-07-02T18:42:13.264Z,6.07
2023-07-02T18:44:41.770Z,6.40
2023-07-02T18:47:13.742Z,6.22
2023-07-02T18:49:43.148Z,6.32
2023-07-02T18:52:13.281Z,5.43
2023-07-02T18:54:41.402Z,6.00
2023-07-02T18:57:12.576Z,5.85
2023-07-02T18:59:42.388Z,6.97
2023-07-02T19:02:11.590Z,5.97
2023-07-02T19:04:39.540Z,6.43
2023-07-02T19:07:07.816Z,6.38
2023-07-02T19:09:37.250Z,5.93
2023-07-02T19:12:08.189Z,6.40
2023-07-02T19:14:37.479Z,7.07
2023-07-02T19:17:07.225Z,6.47
2023-07-02T19:19:38.496Z,6.35
2023-07-02T19:22:06.987Z,6.28
2023-07-02T19:24:35.718Z,6.38
2023-07-02T19:27:04.266Z,5.80
2023-07-02T19:29:33.127Z,7.05
2023-07-02T19:32:01.969Z,5.88
2023-07-02T19:34:30.101Z,6.82
2023-07-02T19:36:59.337Z,6.03
2023-07-02T19:39:28.801Z,5.95
2023-07-02T19:41:56.984Z,5.78
2023-07-02T19:44:24.937Z,6.43
2023-07-02T19:46:52.718Z,5.85
2023-07-02T19:49:20.688Z,6.28
2023-07-02T19:51:51.389Z,6.03
2023-07-02T19:54:21.246Z,6.00
2023-07-02T19:56:50.021Z,5.43
2023-07-02T19:59:18.677Z,6.13
2023-07-02T20:01:46.704Z,6.05
2023-07-02T20:04:20.475Z,5.57
2023-07-02T20:06:48.874Z,6.10
2023-07-02T20:09:16.928Z,5.43
2023-07-02T20:11:46.332Z,5.35
2023-07-02T20:14:14.132Z,6.03
2023-07-02T20:16:42.224Z,5.97
2023-07-02T20:19:10.252Z,5.40
2023-07-02T20:21:39.930Z,5.32
2023-07-02T20:24:07.910Z,5.82
2023-07-02T20:26:36.004Z,4.78
2023-07-02T20:29:05.236Z,5.07
2023-07-02T20:31:33.475Z,5.60
2023-07-02T20:34:05.040Z,5.15
2023-07-02T20:36:33.592Z,5.60
2023-07-02T20:39:01.430Z,5.13
2023-07-02T20:41:29.842Z,5.88
2023-07-02T20:44:00.891Z,5.40
2023-07-02T20:46:31.160Z,5.22
2023-07-02T20:48:59.415Z,4.95
2023-07-02T20:51:27.848Z,5.07
2023-07-02T20:53:55.649Z,5.15
2023-07-02T20:56:23.690Z,4.72
2023-07-02T20:58:52.267Z,5.20
2023-07-02T21:01:20.216Z,5.07
2023-07-02T21:03:49.620Z,4.95
2023-07-02T21:06:17.805Z,5.03
2023-07-02T21:08:45.597Z,5.85
2023-07-02T21:11:28.130Z,5.07
2023-07-02T21:14:01.059Z,5.50
2023-07-02T21:16:29.021Z,4.80
2023-07-02T21:18:58.322Z,5.20
2023-07-02T21:21:26.270Z,4.32
2023-07-02T21:23:54.895Z,4.63
2023-07-02T21:26:22.730Z,5.28
2023-07-02T21:28:50.531Z,5.43
2023-07-02T21:31:18.409Z,5.03
2023-07-02T21:33:48.765Z,5.47
2023-07-02T21:36:18.305Z,4.38
2023-07-02T21:38:48.151Z,5.28
2023-07-02T21:41:17.085Z,5.05
2023-07-02T21:43:45.414Z,5.28
2023-07-02T21:46:15.027Z,4.60
2023-07-02T21:48:43.278Z,4.72
2023-07-02T21:51:11.232Z,5.15
2023-07-02T21:53:43.272Z,5.25
2023-07-02T21:56:11.101Z,5.25
2023-07-02T21:58:39.119Z,5.07
2023-07-02T22:01:07.115Z,5.63
2023-07-02T22:03:35.480Z,5.32
2023-07-02T22:06:03.431Z,5.03
2023-07-02T22:08:31.641Z,4.95
2023-07-02T22:11:16.898Z,4.78
2023-07-02T22:13:49.709Z,5.07
2023-07-02T22:16:18.070Z,5.75
2023-07-02T22:18:45.996Z,4.45
2023-07-02T22:21:14.833Z,5.57
2023-07-02T22:23:44.051Z,5.05
2023-07-02T22:26:13.407Z,4.72
2023-07-02T22:28:42.320Z,4.80
2023-07-02T22:31:10.294Z,5.05
2023-07-02T22:33:38.191Z,4.72
2023-07-02T22:36:06.602Z,5.13
2023-07-02T22:38:34.361Z,5.07
2023-07-02T22:41:02.229Z,4.65
2023-07-02T22:43:31.644Z,4.72
2023-07-02T22:45:59.602Z,5.05
2023-07-02T22:48:27.715Z,4.50
2023-07-02T22:50:56.321Z,4.78
2023-07-02T22:53:24.202Z,5.30
2023-07-02T22:55:52.414Z,5.05
2023-07-02T22:58:21.090Z,5.07
2023-07-02T23:00:52.216Z,5.13
2023-07-02T23:03:20.341Z,5.28
2023-07-02T23:05:48.640Z,4.72
2023-07-02T23:08:20.183Z,4.78
2023-07-02T23:10:48.200Z,5.20
2023-07-02T23:13:16.964Z,5.32
2023-07-02T23:15:44.883Z,5.07
2023-07-02T23:18:16.532Z,4.80
2023-07-02T23:20:44.502Z,5.18
2023-07-02T23:23:13.473Z,5.30
2023-07-02T23:25:46.982Z,4.70
2023-07-02T23:28:15.037Z,5.35
2023-07-02T23:30:43.078Z,5.53
2023-07-02T23:33:11.495Z,4.47
2023-07-02T23:35:40.852Z,5.13
2023-07-02T23:38:09.870Z,5.18
2023-07-02T23:40:37.966Z,5.28
2023-07-02T23:43:05.867Z,4.65
2023-07-02T23:45:33.980Z,5.15
2023-07-02T23:48:02.202Z,4.43
2023-07-02T23:50:30.387Z,5.00
2023-07-02T23:52:59.680Z,4.63
2023-07-02T23:55:27.608Z,5.32
2023-07-02T23:57:55.383Z,5.07
